Kosh Agach, Russia
Current Conditions -  °F | °C
As of 5:30 PM on Saturday 01 Nov 2014 (Local Time) from UASK Reporting Station
Few Clouds Few Clouds  
Wind Chill: 41°   Ceiling: Unl
Heat Index: 45°   Visibility: 6mi
Dew Point: 30°   Wind: 7mph
Humidity: 57%   Direction: 50°NE
Pressure: 30.24"   Gusts: NA
Location:  50°N, 88.67°E
Report Text: UASK 011030Z 05003MPS 9999 FEW230 07/M01 Q1024 R12/000060 NOSIGRMK QFE743/0990
Loading
Personal Weather Stations






























Interactive Weather Map
Tropical Storm Tracking
New forecast layout! Learn more

10-Day Weather Forecast

Advertisements
Track Severe Weather on mobile